NCAR-RAP Real-Time Weather Data

Output produced by METARs form (23 February 2020  02:38 UTC)
found at http://weather.rap.ucar.edu/surface/
 
KCAR 230154Z AUTO 25007KT 10SM FEW120 M03/M08 A2993 RMK AO2 SLP147 T10281078
KCAR 230054Z AUTO 24008KT 10SM CLR M02/M08 A2992 RMK AO2 SLP146 T10221078
KCAR 222354Z AUTO 25006KT 10SM CLR M02/M08 A2991 RMK AO2 SLP144 T10221078 10017 21028 53015